Latest Weather Observations for Mount Gambier

IDS60801

Issued at 10:05 pm CST Friday 18 April 2014 (issued every 30 minutes, with the page automatically refreshed every 10 minutes)

About weather observations | Map of weather stations | Latest weather observations for SA | Other Formats
Station Details ID: 026021 Name: MOUNT GAMBIER AERO Lat: -37.75 Lon: 140.77 Height: 63.0 m
Data from the previous 72 hours. | See also: Recent months at Mount Gambier
Date/Time
CST
Temp
°C
App
Temp
°C
Dew
Point
Rel
Hum
%
Delta-T
°C
Wind Press
QNH
hPa
Press
MSL
hPa
Rain
since 9 am
mm
Dir
 
Spd
km/h
Gust
km/h
Spd
kts
Gust
kts
18/10:00pm 8.1 5.8 5.9 86 1.0 WNW 7 11 4 6 1022.6 - 0.0
18/09:30pm 8.3 5.7 5.9 85 1.1 W 9 9 5 5 1022.6 - 0.0
18/09:00pm 9.8 7.2 5.9 77 1.8 W 9 9 5 5 1022.5 1022.5 0.0
18/08:30pm 11.0 8.3 5.8 70 2.4 W 9 11 5 6 1022.4 - 0.0
18/08:00pm 10.8 8.2 6.3 74 2.1 WNW 9 11 5 6 1022.3 - 0.0
18/07:30pm 9.8 7.3 6.4 79 1.6 WNW 9 11 5 6 1022.2 - 0.0
18/07:00pm 10.6 8.0 6.3 75 2.0 W 9 9 5 5 1022.1 - 0.0
18/06:30pm 11.1 8.8 5.9 70 2.4 WSW 7 9 4 5 1022.0 - 0.0
18/06:00pm 11.5 8.6 6.4 71 2.4 SSW 11 13 6 7 1021.7 1021.7 0.0
18/05:30pm 12.9 8.4 6.1 63 3.2 SSW 19 26 10 14 1021.6 - 0.0
18/05:00pm 13.7 8.1 5.4 57 3.9 SW 24 32 13 17 1021.4 - 0.0
18/04:30pm 14.2 9.7 7.0 62 3.5 SSW 20 28 11 15 1021.2 - 0.0
18/04:00pm 14.4 8.1 5.5 55 4.2 SW 28 37 15 20 1021.1 - 0.0
18/03:30pm 15.3 9.0 3.7 46 5.3 SW 26 33 14 18 1020.8 - 0.0
18/03:00pm 15.2 8.4 5.3 51 4.7 SSW 30 39 16 21 1020.7 1020.7 0.0
18/02:30pm 17.3 10.4 6.3 48 5.4 SW 32 41 17 22 1020.3 - 0.0
18/02:00pm 17.3 10.9 5.0 44 5.9 SW 28 41 15 22 1020.1 - 0.0
18/01:30pm 16.0 9.6 5.3 49 5.1 SW 28 43 15 23 1020.1 - 0.0
18/01:00pm 17.0 11.2 6.2 49 5.3 SW 26 35 14 19 1020.1 - 0.0
18/12:30pm 15.4 9.7 6.6 55 4.3 SW 26 37 14 20 1020.3 - 0.0
18/12:00pm 14.0 8.0 8.6 70 2.7 SW 30 44 16 24 1020.5 1020.5 0.0
18/11:30am 16.5 10.9 5.5 48 5.3 SW 24 33 13 18 1020.1 - 0.0
18/11:00am 16.9 10.8 4.7 44 5.8 SSW 26 37 14 20 1020.1 - 0.0
18/10:30am 16.1 9.7 5.4 49 5.1 SSW 28 41 15 22 1019.8 - 0.0
18/10:00am 16.4 10.7 6.6 52 4.8 SSW 26 37 14 20 1019.6 - 0.0
18/09:30am 15.7 9.8 7.5 58 4.1 SSW 28 37 15 20 1019.5 - 0.0
18/09:00am 14.8 10.6 8.2 64 3.3 SW 20 32 11 17 1019.4 1019.4 3.4
18/08:30am 14.1 10.2 8.8 70 2.7 SW 19 26 10 14 1019.0 - 3.4
18/08:00am 13.6 10.1 10.1 79 1.8 SW 19 26 10 14 1018.6 - 3.4
18/07:30am 13.0 10.1 11.1 88 1.0 SW 17 22 9 12 1018.0 - 3.4
18/07:00am 12.6 9.2 11.1 91 0.8 SW 20 26 11 14 1017.6 - 3.4
18/06:30am 13.0 9.1 12.1 94 0.5 SW 24 37 13 20 1017.0 - 3.4
18/06:14am 13.1 11.0 12.5 96 0.3 SW 15 19 8 10 1016.7 - 3.2
18/06:02am 13.0 10.1 12.4 96 0.3 WSW 19 26 10 14 1016.5 - 3.2
18/06:00am 13.0 10.1 12.4 96 0.3 WSW 19 26 10 14 1016.5 1016.5 3.0
18/05:34am 13.2 9.0 12.5 95 0.4 WSW 26 37 14 20 1016.3 - 2.8
18/05:30am 13.2 8.7 12.5 95 0.4 WSW 28 37 15 20 1016.3 - 2.6
18/05:13am 13.3 6.6 12.4 94 0.5 SW 39 50 21 27 1016.0 - 2.2
18/05:10am 13.4 5.6 12.9 97 0.3 W 46 59 25 32 1016.0 - 2.2
18/05:09am 13.6 9.4 13.6 100 0.0 WNW 28 59 15 32 1016.0 - 2.2
18/05:00am 14.3 12.7 13.9 97 0.2 NNW 15 19 8 10 1015.4 - 1.0
18/04:30am 13.5 11.6 13.1 97 0.2 NNW 15 20 8 11 1015.4 - 0.6
18/04:00am 12.9 10.8 12.3 96 0.3 NNW 15 19 8 10 1015.2 - 0.6
18/03:30am 12.8 11.0 12.2 96 0.3 N 13 19 7 10 1015.1 - 0.6
18/03:11am 13.0 10.9 12.4 96 0.3 NNW 15 20 8 11 1015.3 - 0.6
18/03:00am 13.3 11.3 12.6 95 0.4 NNW 15 19 8 10 1015.5 1015.5 0.6
18/02:51am 13.4 10.9 12.3 93 0.6 NW 17 20 9 11 1015.7 - 0.4
18/02:46am 13.4 10.6 11.5 88 1.0 NNW 17 24 9 13 1015.8 - 0.2
18/02:30am 13.3 10.1 10.0 80 1.7 NNW 17 26 9 14 1015.5 - 0.0
18/02:00am 13.1 9.5 9.8 80 1.7 N 19 28 10 15 1015.6 - 0.0
18/01:30am 12.8 9.5 9.5 80 1.7 NNW 17 24 9 13 1015.9 - 0.0
18/01:00am 12.9 9.5 9.1 78 1.9 NNW 17 22 9 12 1016.2 - 0.0
18/12:30am 13.0 10.0 9.3 78 1.9 N 15 22 8 12 1016.3 - 0.0
18/12:00am 12.3 8.3 8.9 80 1.7 N 20 26 11 14 1016.0 1016.0 0.0
 
Date/Time
CST
Temp
°C
App
Temp
°C
Dew
Point
Rel
Hum
%
Delta-T
°C
Wind Press
QNH
hPa
Press
MSL
hPa
Rain
since 9 am
mm
Dir
 
Spd
km/h
Gust
km/h
Spd
kts
Gust
kts
17/11:30pm 12.4 9.0 9.0 80 1.7 N 17 20 9 11 1016.5 - 0.0
17/11:00pm 11.8 8.8 9.2 84 1.3 N 15 20 8 11 1017.2 - 0.0
17/10:30pm 11.3 7.8 8.7 84 1.3 N 17 20 9 11 1017.5 - 0.0
17/10:00pm 10.8 7.3 8.6 86 1.1 N 17 19 9 10 1017.9 - 0.0
17/09:30pm 10.5 7.7 8.5 87 1.0 N 13 15 7 8 1018.3 - 0.0
17/09:00pm 10.4 7.9 8.4 87 1.0 N 11 13 6 7 1018.5 1018.5 0.0
17/08:30pm 9.9 7.0 8.0 88 0.9 N 13 13 7 7 1018.4 - 0.0
17/08:00pm 10.6 8.1 8.4 86 1.1 N 11 13 6 7 1018.4 - 0.0
17/07:30pm 11.5 9.6 8.9 84 1.3 N 9 9 5 5 1018.4 - 0.0
17/07:00pm 12.0 10.0 8.8 81 1.6 NNW 9 11 5 6 1018.6 - 0.0
17/06:30pm 12.6 10.3 9.0 79 1.8 NW 11 13 6 7 1018.7 - 0.0
17/06:00pm 13.5 12.1 9.6 77 2.0 NW 7 9 4 5 1018.5 1018.5 0.0
17/05:30pm 14.7 12.6 9.7 72 2.6 W 11 13 6 7 1018.6 - 0.0
17/05:00pm 16.0 13.4 9.4 65 3.4 W 13 17 7 9 1018.6 - 0.0
17/04:30pm 16.9 13.3 8.3 57 4.4 WNW 17 20 9 11 1018.7 - 0.0
17/04:00pm 17.6 14.0 8.5 55 4.7 W 17 22 9 12 1018.7 - 0.0
17/03:30pm 18.0 13.9 8.7 54 4.8 W 20 26 11 14 1018.8 - 0.0
17/03:00pm 18.3 12.9 7.9 50 5.3 W 26 35 14 19 1018.9 1018.9 0.0
17/02:30pm 18.8 14.0 8.8 52 5.2 W 24 32 13 17 1019.0 - 0.0
17/02:00pm 18.7 14.2 8.7 52 5.2 W 22 32 12 17 1018.9 - 0.0
17/01:30pm 18.9 14.6 10.6 58 4.5 W 24 32 13 17 1019.2 - 0.0
17/01:00pm 18.2 14.1 11.4 64 3.7 W 24 30 13 16 1019.3 - 0.0
17/12:30pm 20.0 17.1 11.0 56 4.9 WNW 17 24 9 13 1019.6 - 0.0
17/12:00pm 20.0 15.6 10.4 54 5.2 NNW 24 35 13 19 1020.0 1020.0 0.0
17/11:30am 17.9 14.4 12.3 70 3.1 NNW 22 28 12 15 1020.3 - 0.0
17/11:00am 19.1 17.5 12.9 67 3.5 N 13 19 7 10 1020.4 - 0.0
17/10:30am 17.2 15.8 13.3 78 2.2 NNW 13 15 7 8 1020.5 - 0.0
17/10:00am 16.4 14.9 13.2 81 1.8 N 13 17 7 9 1020.4 - 0.0
17/09:30am 14.7 12.6 12.5 87 1.2 N 15 17 8 9 1020.5 - 0.0
17/09:00am 12.9 10.4 11.2 89 0.9 N 15 19 8 10 1020.7 1020.7 1.6
17/08:30am 12.1 9.6 10.9 92 0.6 N 15 20 8 11 1020.7 - 1.6
17/08:00am 11.6 10.0 10.2 91 0.7 N 9 15 5 8 1020.5 - 1.4
17/07:30am 10.9 8.5 9.9 93 0.5 N 13 19 7 10 1020.1 - 1.4
17/07:00am 9.9 8.1 9.3 96 0.3 NNE 9 11 5 6 1019.9 - 1.4
17/06:30am 10.3 7.4 9.7 96 0.3 N 15 20 8 11 1019.6 - 1.4
17/06:01am 10.4 8.3 9.6 95 0.4 N 11 17 6 9 1019.5 - 1.4
17/06:00am 10.4 8.3 9.6 95 0.4 N 11 17 6 9 1019.5 1019.5 1.4
17/05:30am 10.2 8.4 9.6 96 0.3 NNW 9 13 5 7 1019.5 - 1.4
17/05:00am 10.1 7.5 9.5 96 0.3 N 13 17 7 9 1019.4 - 1.4
17/04:30am 9.7 6.3 9.3 97 0.2 N 17 22 9 12 1019.2 - 1.4
17/04:00am 8.3 5.3 7.9 97 0.2 N 13 17 7 9 1019.1 - 1.4
17/03:30am 7.4 6.8 7.2 99 0.1 CALM 0 4 0 2 1019.0 - 1.4
17/03:07am 7.6 7.0 7.2 97 0.2 CALM 0 0 0 0 1018.8 - 1.4
17/03:00am 8.0 6.7 7.6 97 0.2 NNE 4 7 2 4 1018.8 1018.8 1.4
17/02:30am 7.0 6.3 7.0 100 0.0 CALM 0 0 0 0 1018.9 - 1.4
17/02:16am 7.6 6.6 7.2 97 0.2 NNW 2 6 1 3 1019.0 - 1.4
17/02:00am 8.2 5.9 7.6 96 0.3 NE 9 9 5 5 1019.1 - 1.4
17/01:30am 9.2 6.8 8.6 96 0.3 NNE 11 11 6 6 1019.2 - 1.4
17/01:00am 9.8 7.2 9.4 97 0.2 NNE 13 13 7 7 1019.2 - 1.4
17/12:30am 9.4 7.1 9.0 97 0.2 NNE 11 11 6 6 1019.2 - 1.4
17/12:00am 9.7 8.2 9.3 97 0.2 ENE 7 9 4 5 1019.2 1019.2 1.4
 
Date/Time
CST
Temp
°C
App
Temp
°C
Dew
Point
Rel
Hum
%
Delta-T
°C
Wind Press
QNH
hPa
Press
MSL
hPa
Rain
since 9 am
mm
Dir
 
Spd
km/h
Gust
km/h
Spd
kts
Gust
kts
16/11:45pm 9.7 7.5 9.3 97 0.2 NNE 11 15 6 8 1019.2 - 1.4
16/11:42pm 9.7 7.1 9.3 97 0.2 N 13 15 7 8 1019.2 - 1.4
16/11:30pm 9.3 6.6 8.9 97 0.2 NNE 13 15 7 8 1019.3 - 1.4
16/11:00pm 10.1 8.0 9.9 99 0.1 NNE 11 11 6 6 1019.6 - 1.4
16/10:30pm 9.5 7.7 9.5 100 0.0 NNE 9 11 5 6 1019.7 - 1.4
16/10:00pm 9.5 8.0 9.1 97 0.2 N 7 9 4 5 1019.7 - 1.4
16/09:30pm 10.2 9.2 10.2 100 0.0 N 6 7 3 4 1019.9 - 1.4
16/09:00pm 9.8 9.7 9.4 97 0.2 CALM 0 0 0 0 1020.0 1020.0 1.4
16/08:30pm 11.0 11.2 10.6 97 0.2 CALM 0 0 0 0 1020.0 - 1.4
16/08:00pm 10.9 11.0 10.3 96 0.3 CALM 0 0 0 0 1019.8 - 1.4
16/07:49pm 11.8 12.2 11.2 96 0.3 CALM 0 0 0 0 1019.9 - 1.4
16/07:30pm 12.4 11.6 11.8 96 0.3 N 7 9 4 5 1019.8 - 1.4
16/07:00pm 12.4 11.3 12.0 97 0.2 NNE 9 9 5 5 1019.7 - 1.2
16/06:30pm 12.6 12.1 12.0 96 0.3 ENE 6 9 3 5 1019.2 - 1.2
16/06:00pm 13.3 14.1 12.6 95 0.4 CALM 0 0 0 0 1019.3 1019.3 1.2
16/05:30pm 13.7 13.2 12.6 93 0.6 SW 7 9 4 5 1019.1 - 1.2
16/05:00pm 13.8 12.5 12.5 92 0.7 NNE 11 19 6 10 1018.3 - 1.2
16/04:30pm 14.6 14.1 12.6 88 1.1 W 7 11 4 6 1019.3 - 1.0
16/04:00pm 15.1 12.6 11.2 77 2.1 WSW 15 19 8 10 1019.5 - 0.2
16/03:30pm 17.5 14.0 8.6 56 4.6 W 17 20 9 11 1019.3 - 0.0
16/03:00pm 17.7 13.3 7.4 51 5.2 WSW 20 32 11 17 1019.4 1019.4 0.0
16/02:30pm 19.2 14.1 7.7 47 5.9 WSW 24 33 13 18 1019.1 - 0.0
16/02:00pm 19.5 14.1 8.1 47 5.9 W 26 32 14 17 1018.9 - 0.0
16/01:30pm 19.8 15.0 9.0 49 5.7 W 24 33 13 18 1018.7 - 0.0
16/01:00pm 19.5 15.1 9.0 50 5.5 WNW 22 32 12 17 1018.9 - 0.0
16/12:30pm 20.3 16.3 9.2 49 5.9 WNW 20 32 11 17 1019.0 - 0.0
16/12:00pm 19.7 17.5 10.7 56 4.9 NW 13 19 7 10 1019.4 1019.4 0.0
16/11:30am 18.2 16.4 10.8 62 4.0 NNW 11 19 6 10 1019.7 - 0.0
16/11:00am 17.5 14.5 10.6 64 3.7 NNW 17 20 9 11 1019.8 - 0.0
16/10:30am 16.3 12.7 10.7 69 3.0 NNW 20 28 11 15 1020.1 - 0.0
16/10:00am 14.7 12.1 10.7 77 2.1 N 15 24 8 13 1020.1 - 0.0
16/09:30am 14.4 12.3 11.0 80 1.8 N 13 22 7 12 1020.5 - 0.0
16/09:00am 11.2 9.5 10.0 92 0.6 N 9 13 5 7 1020.6 1020.6 0.0
16/08:30am 10.5 8.7 9.5 93 0.5 N 9 11 5 6 1020.6 - 0.0
16/08:00am 10.2 8.3 9.2 93 0.5 NNE 9 11 5 6 1020.5 - 0.0
16/07:30am 9.9 7.2 9.1 95 0.4 NNE 13 13 7 7 1020.3 - 0.0
16/07:00am 9.5 7.1 8.7 95 0.4 NNE 11 13 6 7 1020.3 - 0.0
16/06:30am 8.8 6.0 8.4 97 0.2 NNE 13 15 7 8 1020.3 - 0.0
16/06:00am 9.6 7.2 8.8 95 0.4 NNE 11 13 6 7 1020.2 1020.2 0.0
16/05:30am 8.5 6.0 8.1 97 0.2 NE 11 13 6 7 1020.0 - 0.0
16/05:00am 8.6 6.1 8.4 99 0.1 NE 11 11 6 6 1020.1 - 0.0
16/04:30am 8.4 5.9 8.2 99 0.1 NE 11 11 6 6 1020.1 - 0.0
16/04:00am 8.5 5.6 8.3 99 0.1 NE 13 13 7 7 1020.0 - 0.0
16/03:30am 8.3 6.2 8.1 99 0.1 NE 9 11 5 6 1020.3 - 0.0
16/03:05am 6.7 5.9 6.5 99 0.1 CALM 0 0 0 0 1020.8 - 0.0
16/03:00am 6.5 5.7 6.5 100 0.0 CALM 0 0 0 0 1020.8 1020.8 0.0
16/02:30am 6.9 6.2 6.9 100 0.0 CALM 0 0 0 0 1021.0 - 0.0
16/02:00am 7.3 6.6 7.1 99 0.1 CALM 0 0 0 0 1021.6 - 0.0
16/01:30am 6.5 5.7 6.3 99 0.1 CALM 0 0 0 0 1021.8 - 0.0
16/01:00am 7.3 6.7 7.3 100 0.0 CALM 0 0 0 0 1022.2 - 0.0
16/12:30am 7.5 5.8 7.5 100 0.0 WSW 6 6 3 3 1022.2 - 0.0
16/12:00am 8.2 7.7 8.0 99 0.1 CALM 0 0 0 0 1022.1 1022.1 0.0
 
Date/Time
CST
Temp
°C
App
Temp
°C
Dew
Point
Rel
Hum
%
Delta-T
°C
Wind Press
QNH
hPa
Press
MSL
hPa
Rain
since 9 am
mm
Dir
 
Spd
km/h
Gust
km/h
Spd
kts
Gust
kts
15/11:30pm 8.5 8.1 8.1 97 0.2 CALM 0 0 0 0 1022.1 - 0.0
15/11:00pm 9.5 9.3 9.1 97 0.2 CALM 0 0 0 0 1022.5 - 0.0
15/10:30pm 9.8 9.7 9.4 97 0.2 CALM 0 0 0 0 1022.7 - 0.0

Other Formats:

Comma delimited format used in spreadsheet applications
http://www.bom.gov.au/fwo/IDS60801/IDS60801.94821.axf

JavaScript Object Notation format (JSON) in row-major order
http://www.bom.gov.au/fwo/IDS60801/IDS60801.94821.json